Time;durP1;ratioP1;P1;durP2;ratioP2;P2;SDS_P1;SDS_P2;PMS_P1;PMS_P2;Temp;Humidity;BMP_temperature;BMP_pressure;BME280_temperature;BME280_humidity;BME280_pressure;Samples;Min_cycle;Max_cycle;Signal;HPM_P1;HPM_P2
2022/03/24 00:00:53;;;;;;;35.73;11.40;;;9.00;99.90;;;;;;5071677;28;20874;-68
2022/03/24 00:03:20;;;;;;;31.37;12.07;;;9.10;99.90;;;;;;5070183;28;20470;-68
2022/03/24 00:05:47;;;;;;;32.97;14.67;;;9.20;99.90;;;;;;5071817;28;20614;-68
2022/03/24 00:08:14;;;;;;;35.00;13.57;;;9.00;99.90;;;;;;5079407;28;20428;-67
2022/03/24 00:10:40;;;;;;;22.57;10.90;;;8.90;99.90;;;;;;5074122;28;21476;-68
2022/03/24 00:13:08;;;;;;;28.40;11.13;;;8.80;99.90;;;;;;5078626;28;20432;-69
2022/03/24 00:15:35;;;;;;;22.00;12.23;;;8.80;99.90;;;;;;5072376;28;20428;-68
2022/03/24 00:18:02;;;;;;;27.00;12.70;;;8.80;99.90;;;;;;5071717;28;20436;-68
2022/03/24 00:20:28;;;;;;;18.67;11.57;;;8.70;99.90;;;;;;5076779;28;21266;-67
2022/03/24 00:22:55;;;;;;;32.67;13.53;;;8.60;99.90;;;;;;5079132;28;20440;-68
2022/03/24 00:25:24;;;;;;;29.93;11.13;;;8.50;99.90;;;;;;5071152;28;20428;-69
2022/03/24 00:27:50;;;;;;;27.97;11.97;;;8.70;99.90;;;;;;5080901;28;20457;-68
2022/03/24 00:30:18;;;;;;;28.60;15.37;;;8.70;99.90;;;;;;5082731;28;20523;-67
2022/03/24 00:32:45;;;;;;;19.73;13.53;;;8.60;99.90;;;;;;5073244;28;20846;-68
2022/03/24 00:35:12;;;;;;;25.97;12.67;;;8.50;99.90;;;;;;5079312;28;20439;-67
2022/03/24 00:37:38;;;;;;;39.80;13.73;;;8.40;99.90;;;;;;5075559;28;20454;-67
2022/03/24 00:40:07;;;;;;;32.03;13.70;;;8.40;99.90;;;;;;5066341;28;20564;-67
2022/03/24 00:42:36;;;;;;;20.87;11.50;;;8.40;99.90;;;;;;5072188;28;20456;-68
2022/03/24 00:45:05;;;;;;;17.93;10.73;;;8.50;99.90;;;;;;5075954;28;20481;-68
2022/03/24 00:47:34;;;;;;;21.50;10.00;;;8.40;99.90;;;;;;5075963;28;20436;-68
2022/03/24 00:50:01;;;;;;;23.97;13.33;;;8.30;99.90;;;;;;5075448;28;20448;-68
2022/03/24 00:52:27;;;;;;;20.83;10.77;;;8.30;99.90;;;;;;5070957;28;20979;-69
2022/03/24 00:54:54;;;;;;;24.03;12.80;;;8.40;99.90;;;;;;5070493;28;20500;-69
2022/03/24 00:57:20;;;;;;;23.67;10.13;;;8.50;99.90;;;;;;5070753;28;20518;-69
2022/03/24 00:59:47;;;;;;;23.80;11.83;;;8.40;99.90;;;;;;5063733;28;20983;-68
2022/03/24 01:02:14;;;;;;;15.97;10.17;;;8.30;99.90;;;;;;5073645;28;20478;-69
2022/03/24 01:04:42;;;;;;;21.87;12.37;;;8.20;99.90;;;;;;5069775;28;20454;-67
2022/03/24 01:07:09;;;;;;;21.27;10.90;;;8.10;99.90;;;;;;5072983;28;21021;-68
2022/03/24 01:09:35;;;;;;;19.70;10.83;;;8.10;99.90;;;;;;5071483;28;20460;-68
2022/03/24 01:12:05;;;;;;;22.47;11.30;;;8.20;99.90;;;;;;5070376;28;20987;-67
2022/03/24 01:14:35;;;;;;;16.97;9.87;;;8.10;99.90;;;;;;5073925;28;20428;-68
2022/03/24 01:17:04;;;;;;;20.80;12.50;;;8.20;99.90;;;;;;5065834;28;20428;-68
2022/03/24 01:19:32;;;;;;;23.17;11.63;;;8.30;99.90;;;;;;5064810;28;20460;-67
2022/03/24 01:22:01;;;;;;;20.80;10.33;;;8.30;99.90;;;;;;5071675;28;20481;-67
2022/03/24 01:24:28;;;;;;;21.10;11.80;;;8.00;99.90;;;;;;5073713;28;21022;-68
2022/03/24 01:26:55;;;;;;;17.13;10.53;;;8.00;99.90;;;;;;5077528;28;20458;-68
2022/03/24 01:29:23;;;;;;;14.87;11.63;;;7.90;99.90;;;;;;5071396;28;20481;-67
2022/03/24 01:31:51;;;;;;;16.57;9.73;;;7.90;99.90;;;;;;5074752;28;20884;-67
2022/03/24 01:34:18;;;;;;;19.17;11.17;;;8.00;99.90;;;;;;5076441;28;20908;-67
2022/03/24 01:36:45;;;;;;;18.00;9.90;;;8.00;99.90;;;;;;5075679;28;20547;-68
2022/03/24 01:39:13;;;;;;;17.33;8.80;;;7.90;99.90;;;;;;5068162;28;20469;-67
2022/03/24 01:41:40;;;;;;;22.30;11.93;;;7.90;99.90;;;;;;5066415;28;20453;-68
2022/03/24 01:44:13;;;;;;;18.17;12.10;;;7.80;99.90;;;;;;5072343;28;21074;-68
2022/03/24 01:46:54;;;;;;;21.00;10.03;;;7.70;99.90;;;;;;5078357;28;20432;-68
2022/03/24 01:49:20;;;;;;;20.90;13.20;;;7.70;99.90;;;;;;5069986;28;20473;-67
2022/03/24 01:51:47;;;;;;;19.77;9.47;;;7.60;99.90;;;;;;5065514;28;20471;-67
2022/03/24 01:54:15;;;;;;;17.60;8.73;;;7.50;99.90;;;;;;5076244;28;20606;-68
2022/03/24 01:56:42;;;;;;;22.40;11.57;;;7.50;99.90;;;;;;5069851;28;20437;-68
2022/03/24 01:59:09;;;;;;;20.97;11.33;;;7.40;99.90;;;;;;5069126;28;21534;-68
2022/03/24 02:01:37;;;;;;;15.73;10.10;;;7.40;99.90;;;;;;5072892;28;20627;-68
2022/03/24 02:04:05;;;;;;;14.50;8.10;;;7.40;99.90;;;;;;5070253;28;20428;-68
2022/03/24 02:06:32;;;;;;;26.37;10.43;;;7.50;99.90;;;;;;5071056;28;20428;-68
2022/03/24 02:08:59;;;;;;;19.67;11.67;;;7.40;99.90;;;;;;5079561;28;20457;-69
2022/03/24 02:11:27;;;;;;;16.80;11.47;;;7.30;99.90;;;;;;5065187;28;20463;-69
2022/03/24 02:13:54;;;;;;;24.23;12.63;;;7.20;99.90;;;;;;5071756;28;20450;-68
2022/03/24 02:16:21;;;;;;;22.70;9.40;;;7.10;99.90;;;;;;5070377;28;20493;-68
2022/03/24 02:18:48;;;;;;;20.20;11.43;;;6.90;99.90;;;;;;5068885;28;20453;-67
2022/03/24 02:21:16;;;;;;;23.60;13.90;;;6.70;99.90;;;;;;5071283;28;20453;-67
2022/03/24 02:23:44;;;;;;;19.50;10.20;;;6.50;99.90;;;;;;5075618;28;20455;-68
2022/03/24 02:26:12;;;;;;;26.83;13.30;;;6.40;99.90;;;;;;5070171;28;20458;-68
2022/03/24 02:28:40;;;;;;;15.40;10.53;;;6.50;99.90;;;;;;5075058;28;20454;-67
2022/03/24 02:31:09;;;;;;;24.27;11.53;;;6.80;99.90;;;;;;5067778;28;20459;-67
2022/03/24 02:33:37;;;;;;;21.27;10.87;;;6.80;99.90;;;;;;5077877;28;20461;-67
2022/03/24 02:36:04;;;;;;;23.23;11.23;;;7.00;99.90;;;;;;5074458;28;21087;-68
2022/03/24 02:38:32;;;;;;;21.73;11.37;;;7.00;99.90;;;;;;5068073;28;20454;-68
2022/03/24 02:41:01;;;;;;;24.87;9.70;;;6.90;99.90;;;;;;5076322;28;20481;-68
2022/03/24 02:43:28;;;;;;;24.00;10.70;;;6.90;99.90;;;;;;5073831;28;20440;-68
2022/03/24 02:45:55;;;;;;;21.30;11.17;;;6.90;99.90;;;;;;5068294;28;20458;-68
2022/03/24 02:48:22;;;;;;;30.23;11.77;;;6.80;99.90;;;;;;5070227;28;20489;-67
2022/03/24 02:50:49;;;;;;;17.67;10.40;;;6.70;99.90;;;;;;5075730;28;20478;-67
2022/03/24 02:53:16;;;;;;;31.87;13.17;;;6.70;99.90;;;;;;5070793;28;20433;-68
2022/03/24 02:55:43;;;;;;;25.23;9.10;;;6.70;99.90;;;;;;5072645;28;20670;-67
2022/03/24 02:58:11;;;;;;;18.67;10.13;;;6.70;99.90;;;;;;5074091;28;20471;-68
2022/03/24 03:00:38;;;;;;;23.73;10.87;;;6.60;99.90;;;;;;5069271;28;20509;-68
2022/03/24 03:03:05;;;;;;;16.83;8.37;;;6.50;99.90;;;;;;5074622;28;20424;-69
2022/03/24 03:05:31;;;;;;;20.23;9.83;;;6.60;99.90;;;;;;5071257;28;21770;-69
2022/03/24 03:07:58;;;;;;;16.60;9.37;;;6.60;99.90;;;;;;5071662;28;20573;-68
2022/03/24 03:10:25;;;;;;;26.23;11.37;;;6.70;99.90;;;;;;5082008;28;20567;-69
2022/03/24 03:12:51;;;;;;;18.40;9.60;;;6.70;99.90;;;;;;5073624;28;20505;-67
2022/03/24 03:15:19;;;;;;;29.67;12.90;;;6.70;99.90;;;;;;5076045;28;20427;-68
2022/03/24 03:17:46;;;;;;;16.97;8.60;;;6.70;99.90;;;;;;5071898;28;20426;-68
2022/03/24 03:20:13;;;;;;;20.87;11.20;;;6.40;99.90;;;;;;5076120;28;20533;-68
2022/03/24 03:22:40;;;;;;;22.90;11.80;;;6.40;99.90;;;;;;5071960;28;20453;-67
2022/03/24 03:25:08;;;;;;;24.73;10.87;;;6.50;99.90;;;;;;5072468;28;20424;-68
2022/03/24 03:27:35;;;;;;;15.13;9.40;;;6.40;99.90;;;;;;5074528;28;20436;-67
2022/03/24 03:30:01;;;;;;;18.50;10.70;;;6.40;99.90;;;;;;5072844;28;20451;-68
2022/03/24 03:32:29;;;;;;;19.00;11.50;;;6.40;99.90;;;;;;5078861;28;20440;-68
2022/03/24 03:34:56;;;;;;;17.47;10.13;;;6.40;99.90;;;;;;5081837;28;21179;-68
2022/03/24 03:37:23;;;;;;;16.77;10.30;;;6.30;99.90;;;;;;5076398;28;20492;-68
2022/03/24 03:39:51;;;;;;;20.50;9.50;;;6.30;99.90;;;;;;5079272;28;20542;-68
2022/03/24 03:42:19;;;;;;;14.00;10.07;;;6.20;99.90;;;;;;5080342;28;21224;-69
2022/03/24 03:44:46;;;;;;;17.20;11.43;;;6.10;99.90;;;;;;5078736;28;20462;-69
2022/03/24 03:47:12;;;;;;;12.97;9.17;;;6.10;99.90;;;;;;5080807;28;20449;-68
2022/03/24 03:49:40;;;;;;;18.63;10.77;;;6.10;99.90;;;;;;5081135;28;21004;-69
2022/03/24 03:52:08;;;;;;;26.33;10.40;;;6.20;99.90;;;;;;5080753;28;20421;-69
2022/03/24 03:54:34;;;;;;;15.17;10.40;;;6.00;99.90;;;;;;5077387;28;21112;-69
2022/03/24 03:57:02;;;;;;;19.67;11.50;;;6.10;99.90;;;;;;5077947;28;20490;-69
2022/03/24 03:59:29;;;;;;;24.33;12.67;;;6.20;99.90;;;;;;5079633;28;20473;-68
2022/03/24 04:01:57;;;;;;;23.00;10.53;;;6.10;99.90;;;;;;5078492;28;20546;-69
2022/03/24 04:04:24;;;;;;;23.50;9.90;;;5.90;99.90;;;;;;5081376;28;20444;-69
2022/03/24 04:06:52;;;;;;;29.03;9.43;;;5.90;99.90;;;;;;5077908;28;20512;-68
2022/03/24 04:09:19;;;;;;;16.40;10.63;;;5.80;99.90;;;;;;5072771;28;20510;-69
2022/03/24 04:11:46;;;;;;;13.37;8.40;;;5.70;99.90;;;;;;5076924;28;20460;-68
2022/03/24 04:14:13;;;;;;;25.60;13.37;;;5.60;99.90;;;;;;5091733;22;20505;-69
2022/03/24 04:16:39;;;;;;;29.30;11.73;;;5.20;99.90;;;;;;5078367;28;20461;-70
2022/03/24 04:19:07;;;;;;;18.70;10.70;;;5.30;99.90;;;;;;5087005;28;20442;-69
2022/03/24 04:21:34;;;;;;;16.87;10.70;;;5.50;99.90;;;;;;5090058;28;20822;-69
2022/03/24 04:24:03;;;;;;;24.93;11.00;;;5.70;99.90;;;;;;5089035;28;20489;-70
2022/03/24 04:26:30;;;;;;;18.90;9.60;;;5.80;99.90;;;;;;5090164;28;20541;-69
2022/03/24 04:28:56;;;;;;;17.17;10.13;;;5.80;99.90;;;;;;5082000;28;20500;-70
2022/03/24 04:31:23;;;;;;;17.60;9.00;;;5.80;99.90;;;;;;5078187;28;20428;-70
2022/03/24 04:33:50;;;;;;;17.47;10.20;;;5.70;99.90;;;;;;5081932;28;20886;-69
2022/03/24 04:36:17;;;;;;;16.57;8.27;;;5.70;99.90;;;;;;5085688;28;20436;-68
2022/03/24 04:38:43;;;;;;;15.23;8.63;;;5.80;99.90;;;;;;5075546;28;20557;-70
2022/03/24 04:41:11;;;;;;;18.10;10.90;;;5.60;99.90;;;;;;5077031;28;20472;-68
2022/03/24 04:43:38;;;;;;;16.20;9.50;;;5.50;99.90;;;;;;5070707;28;20451;-68
2022/03/24 04:46:05;;;;;;;32.13;9.10;;;5.30;99.90;;;;;;5080206;28;21093;-68
2022/03/24 04:48:35;;;;;;;16.00;9.17;;;5.50;99.90;;;;;;5075191;28;20447;-69
2022/03/24 04:51:04;;;;;;;15.50;8.40;;;5.50;99.90;;;;;;5076078;28;20953;-69
2022/03/24 04:53:31;;;;;;;19.80;9.27;;;5.60;99.90;;;;;;5080114;28;20604;-69
2022/03/24 04:55:58;;;;;;;20.87;10.67;;;5.40;99.90;;;;;;5093776;28;20413;-69
2022/03/24 04:58:26;;;;;;;28.97;10.60;;;5.30;99.90;;;;;;5080808;28;20538;-68
2022/03/24 05:00:53;;;;;;;24.17;12.43;;;5.30;99.90;;;;;;5072847;28;20458;-68
2022/03/24 05:03:20;;;;;;;21.53;11.13;;;5.50;99.90;;;;;;5074244;28;20494;-68
2022/03/24 05:05:47;;;;;;;22.97;9.70;;;5.50;99.90;;;;;;5080932;28;20449;-67
2022/03/24 05:08:14;;;;;;;16.23;9.07;;;5.50;99.90;;;;;;5078398;28;20428;-68
2022/03/24 05:10:40;;;;;;;17.97;11.30;;;5.30;99.90;;;;;;5079884;28;20592;-67
2022/03/24 05:13:08;;;;;;;18.70;10.80;;;5.20;99.90;;;;;;5085213;28;20557;-68
2022/03/24 05:15:36;;;;;;;32.47;11.07;;;5.20;99.90;;;;;;5086814;28;20438;-68
2022/03/24 05:18:03;;;;;;;20.97;11.00;;;5.20;99.90;;;;;;5081378;28;20436;-68
2022/03/24 05:20:30;;;;;;;25.40;11.27;;;5.20;99.90;;;;;;5083548;28;20430;-67
2022/03/24 05:22:57;;;;;;;17.67;9.27;;;5.20;99.90;;;;;;5072645;28;20478;-68
2022/03/24 05:25:25;;;;;;;26.70;11.47;;;5.20;99.90;;;;;;5083242;28;20491;-69
2022/03/24 05:27:51;;;;;;;41.67;12.33;;;4.90;99.90;;;;;;5085014;28;20624;-69
2022/03/24 05:30:18;;;;;;;55.10;10.57;;;4.70;99.90;;;;;;5077469;28;20511;-69
2022/03/24 05:32:46;;;;;;;44.83;14.93;;;5.00;99.90;;;;;;5074842;28;20517;-69
2022/03/24 05:35:13;;;;;;;19.60;9.87;;;4.90;99.90;;;;;;5078868;28;20505;-69
2022/03/24 05:37:39;;;;;;;28.23;11.27;;;4.90;99.90;;;;;;5079635;28;20500;-68
2022/03/24 05:40:07;;;;;;;26.23;12.27;;;4.70;99.90;;;;;;5077817;28;20473;-69
2022/03/24 05:42:34;;;;;;;35.77;14.00;;;4.60;99.90;;;;;;5085878;28;20551;-68
2022/03/24 05:45:01;;;;;;;20.20;10.90;;;4.70;99.90;;;;;;5083553;28;20526;-69
2022/03/24 05:47:27;;;;;;;26.60;11.27;;;5.00;99.90;;;;;;5078460;28;20450;-69
2022/03/24 05:49:55;;;;;;;36.80;11.00;;;5.10;99.90;;;;;;5082470;28;20437;-68
2022/03/24 05:52:22;;;;;;;27.43;10.03;;;5.20;99.90;;;;;;5083895;28;20986;-69
2022/03/24 05:54:49;;;;;;;29.63;11.67;;;5.30;99.90;;;;;;5080402;28;20466;-69
2022/03/24 05:57:15;;;;;;;29.33;12.80;;;5.30;99.90;;;;;;5082520;28;20454;-70
2022/03/24 05:59:42;;;;;;;33.63;12.70;;;5.40;99.90;;;;;;5084766;28;20511;-69
2022/03/24 06:02:09;;;;;;;25.80;10.80;;;5.70;99.90;;;;;;5083837;28;21506;-69
2022/03/24 06:04:36;;;;;;;32.90;13.57;;;5.70;99.90;;;;;;5087441;28;20520;-70
2022/03/24 06:07:06;;;;;;;23.93;12.00;;;6.00;99.90;;;;;;5086185;28;20530;-69
2022/03/24 06:09:34;;;;;;;24.20;11.20;;;6.30;99.90;;;;;;5083590;28;20796;-69
2022/03/24 06:12:01;;;;;;;20.27;12.87;;;6.50;99.90;;;;;;5071653;28;20446;-69
2022/03/24 06:14:29;;;;;;;41.03;12.03;;;6.60;99.90;;;;;;5077544;28;20493;-69
2022/03/24 06:16:55;;;;;;;26.77;12.03;;;6.60;99.90;;;;;;5081459;28;20428;-67
2022/03/24 06:19:22;;;;;;;29.83;13.73;;;6.70;99.90;;;;;;5077733;28;20447;-68
2022/03/24 06:21:49;;;;;;;23.23;13.70;;;6.80;99.90;;;;;;5084405;28;20455;-69
2022/03/24 06:24:17;;;;;;;29.60;12.77;;;7.00;99.90;;;;;;5075468;28;20548;-70
2022/03/24 06:26:44;;;;;;;29.67;12.50;;;7.00;99.90;;;;;;5084784;28;20468;-69
2022/03/24 06:29:13;;;;;;;22.23;12.07;;;7.20;99.90;;;;;;5080115;28;20458;-69
2022/03/24 06:31:40;;;;;;;25.70;12.67;;;7.30;99.90;;;;;;5087916;28;20432;-69
2022/03/24 06:34:07;;;;;;;22.73;11.87;;;7.40;99.90;;;;;;5087658;28;20444;-68
2022/03/24 06:36:34;;;;;;;24.20;11.37;;;7.40;99.90;;;;;;5088984;28;20443;-69
2022/03/24 06:39:01;;;;;;;28.73;11.63;;;7.30;99.90;;;;;;5088551;28;20442;-68
2022/03/24 06:41:29;;;;;;;18.70;10.90;;;7.50;99.90;;;;;;5089373;28;20766;-68
2022/03/24 06:43:57;;;;;;;19.43;10.30;;;7.70;99.90;;;;;;5086877;28;20452;-69
2022/03/24 06:46:24;;;;;;;23.27;12.17;;;7.80;99.90;;;;;;5091472;28;20479;-69
2022/03/24 06:48:51;;;;;;;30.10;12.20;;;8.10;99.90;;;;;;5089627;28;20417;-68
2022/03/24 06:51:17;;;;;;;42.87;14.17;;;8.20;99.90;;;;;;5090955;28;20427;-70
2022/03/24 06:53:44;;;;;;;26.47;13.23;;;8.40;99.90;;;;;;5087609;28;20985;-68
2022/03/24 06:56:11;;;;;;;24.30;13.50;;;8.70;99.90;;;;;;5091267;28;20421;-69
2022/03/24 06:58:39;;;;;;;27.40;13.57;;;8.80;99.90;;;;;;5089833;28;20463;-69
2022/03/24 07:01:06;;;;;;;28.73;14.40;;;8.90;99.90;;;;;;5091473;28;20483;-69
2022/03/24 07:03:32;;;;;;;43.53;16.90;;;8.90;99.90;;;;;;5081071;28;20542;-68
2022/03/24 07:05:59;;;;;;;21.90;11.23;;;9.00;99.90;;;;;;5076739;28;20451;-68
2022/03/24 07:08:26;;;;;;;40.73;17.00;;;9.20;99.90;;;;;;5072294;28;20473;-69
2022/03/24 07:10:53;;;;;;;32.47;13.97;;;9.80;99.90;;;;;;5077788;28;20428;-70
2022/03/24 07:13:20;;;;;;;27.47;12.60;;;10.00;99.90;;;;;;5084408;28;20829;-69
2022/03/24 07:15:48;;;;;;;20.80;12.53;;;10.00;99.90;;;;;;5076536;28;20429;-69
2022/03/24 07:18:15;;;;;;;38.90;15.27;;;10.10;99.90;;;;;;5073660;28;20489;-69
2022/03/24 07:20:42;;;;;;;24.50;15.40;;;10.40;99.90;;;;;;5084953;28;20526;-69
2022/03/24 07:23:09;;;;;;;31.77;15.40;;;10.60;99.90;;;;;;5079996;28;20971;-68
2022/03/24 07:25:37;;;;;;;33.80;16.03;;;10.80;99.90;;;;;;5081583;28;20449;-69
2022/03/24 07:28:05;;;;;;;25.33;16.67;;;11.00;99.90;;;;;;5083695;28;20487;-69
2022/03/24 07:30:32;;;;;;;37.20;16.47;;;11.20;99.90;;;;;;5078496;28;20499;-68
2022/03/24 07:33:02;;;;;;;35.13;15.77;;;11.40;99.90;;;;;;5084936;28;21099;-69
2022/03/24 07:35:30;;;;;;;33.70;14.80;;;11.90;99.90;;;;;;5082883;28;20776;-69
2022/03/24 07:37:57;;;;;;;28.10;16.67;;;12.20;99.90;;;;;;5088728;28;20424;-69
2022/03/24 07:40:25;;;;;;;27.30;16.20;;;12.30;99.90;;;;;;5088668;28;20506;-69
2022/03/24 07:42:53;;;;;;;29.47;18.03;;;12.40;99.90;;;;;;5085148;28;20444;-68
2022/03/24 07:45:20;;;;;;;36.77;19.00;;;12.20;99.90;;;;;;5085717;28;20455;-69
2022/03/24 07:48:10;;;;;;;32.13;16.63;;;12.10;99.90;;;;;;5083014;28;20753;-68
2022/03/24 07:50:39;;;;;;;43.20;15.00;;;12.40;99.90;;;;;;5092829;28;20446;-69
2022/03/24 07:53:17;;;;;;;29.20;16.57;;;12.50;99.90;;;;;;5084586;28;20476;-69
2022/03/24 07:55:45;;;;;;;34.50;16.40;;;12.50;99.90;;;;;;5087086;28;20413;-68
2022/03/24 07:58:13;;;;;;;34.10;19.07;;;12.70;99.90;;;;;;5091136;28;20440;-70
2022/03/24 08:00:42;;;;;;;36.67;18.70;;;13.40;99.90;;;;;;5093279;28;20561;-69
2022/03/24 08:03:13;;;;;;;39.53;18.37;;;14.40;99.90;;;;;;5090234;28;20837;-68
2022/03/24 08:05:40;;;;;;;28.20;16.67;;;15.10;99.90;;;;;;5080969;28;20534;-68
2022/03/24 08:08:08;;;;;;;29.83;15.37;;;15.50;99.90;;;;;;5076711;28;20455;-68
2022/03/24 08:10:34;;;;;;;27.93;16.20;;;15.00;99.90;;;;;;5085762;28;20461;-68
2022/03/24 08:13:02;;;;;;;26.97;17.00;;;14.40;99.90;;;;;;5082971;28;20519;-69
2022/03/24 08:15:29;;;;;;;23.73;15.67;;;14.70;99.90;;;;;;5076206;28;20456;-69
2022/03/24 08:17:56;;;;;;;36.97;18.63;;;15.30;99.90;;;;;;5075685;28;20412;-69
2022/03/24 08:20:24;;;;;;;27.10;16.13;;;15.80;99.90;;;;;;5086267;28;20496;-67
2022/03/24 08:22:52;;;;;;;38.50;19.33;;;16.20;99.00;;;;;;5069642;28;20482;-68
2022/03/24 08:25:19;;;;;;;31.33;17.37;;;17.50;95.60;;;;;;5087015;28;20923;-67
2022/03/24 08:27:45;;;;;;;29.70;17.70;;;18.20;93.20;;;;;;5083140;28;20925;-68
2022/03/24 08:30:13;;;;;;;37.40;18.47;;;18.50;91.60;;;;;;5083925;28;20433;-68
2022/03/24 08:32:40;;;;;;;35.17;21.40;;;18.80;89.30;;;;;;5086979;28;20454;-70
2022/03/24 08:35:08;;;;;;;39.03;19.53;;;18.80;86.10;;;;;;5088779;28;20477;-68
2022/03/24 08:37:37;;;;;;;27.13;19.57;;;19.20;83.90;;;;;;5075626;28;20508;-68
2022/03/24 08:40:05;;;;;;;31.20;18.27;;;19.80;79.70;;;;;;5081952;28;20522;-68
2022/03/24 08:42:32;;;;;;;30.10;18.27;;;20.20;78.90;;;;;;5088481;28;20454;-68
2022/03/24 08:44:58;;;;;;;33.67;21.30;;;20.90;72.40;;;;;;5082919;28;20477;-67
2022/03/24 08:47:25;;;;;;;31.80;18.73;;;21.00;71.50;;;;;;5084001;28;20460;-68
2022/03/24 08:49:52;;;;;;;36.30;22.17;;;21.10;64.90;;;;;;5088781;28;20475;-68
2022/03/24 08:52:21;;;;;;;38.13;20.87;;;20.70;65.20;;;;;;5079048;28;20458;-68
2022/03/24 08:54:49;;;;;;;28.57;20.87;;;20.80;64.90;;;;;;5080884;28;20478;-69
2022/03/24 08:57:16;;;;;;;31.00;19.93;;;20.90;66.60;;;;;;5073218;28;20461;-68
2022/03/24 08:59:43;;;;;;;33.00;21.30;;;21.80;62.90;;;;;;5085640;28;20446;-68
2022/03/24 09:02:10;;;;;;;36.10;22.27;;;22.10;60.30;;;;;;5089911;28;20445;-68
2022/03/24 09:04:36;;;;;;;31.30;20.63;;;21.60;60.00;;;;;;5081484;28;21037;-68
2022/03/24 09:07:04;;;;;;;38.07;20.97;;;22.30;58.90;;;;;;5085499;28;20465;-69
2022/03/24 09:09:30;;;;;;;40.80;23.07;;;22.40;59.30;;;;;;5083238;28;20462;-68
2022/03/24 09:11:58;;;;;;;36.97;22.50;;;23.70;57.60;;;;;;5087090;28;21294;-68
2022/03/24 09:14:25;;;;;;;31.97;21.47;;;23.90;56.30;;;;;;5081067;28;20491;-68
2022/03/24 09:16:51;;;;;;;32.57;22.00;;;23.20;55.80;;;;;;5079522;28;20454;-69
2022/03/24 09:19:18;;;;;;;33.80;21.57;;;22.70;54.20;;;;;;5074516;28;20457;-68
2022/03/24 09:21:45;;;;;;;28.73;22.10;;;21.80;55.50;;;;;;5067692;28;20503;-68
2022/03/24 09:24:12;;;;;;;39.87;21.40;;;22.70;55.60;;;;;;5076177;28;20500;-69
2022/03/24 09:26:38;;;;;;;35.90;22.10;;;24.00;55.10;;;;;;5076685;28;20532;-68
2022/03/24 09:29:06;;;;;;;31.00;20.87;;;24.80;52.00;;;;;;5079246;28;20477;-67
2022/03/24 09:31:33;;;;;;;37.17;22.80;;;25.40;51.30;;;;;;5075778;28;20449;-68
2022/03/24 09:34:00;;;;;;;32.50;22.70;;;25.40;51.40;;;;;;5079247;28;20463;-68
2022/03/24 09:36:26;;;;;;;38.27;26.70;;;25.20;49.40;;;;;;5080369;28;20445;-68
2022/03/24 09:38:53;;;;;;;33.83;23.50;;;25.50;49.50;;;;;;5077535;28;20454;-69
2022/03/24 09:41:21;;;;;;;35.60;24.80;;;25.80;48.30;;;;;;5089018;28;20445;-69
2022/03/24 09:43:48;;;;;;;31.97;20.60;;;26.30;47.40;;;;;;5087927;28;20496;-69
2022/03/24 09:46:16;;;;;;;32.80;21.67;;;26.70;45.50;;;;;;5076833;28;20450;-69
2022/03/24 09:48:43;;;;;;;30.83;21.50;;;25.40;44.50;;;;;;5084312;28;20801;-69
2022/03/24 09:51:10;;;;;;;37.40;21.13;;;25.10;45.70;;;;;;5080847;28;20462;-69
2022/03/24 09:53:39;;;;;;;34.93;20.33;;;25.30;45.00;;;;;;5077341;28;20473;-69
2022/03/24 09:56:06;;;;;;;31.63;21.30;;;25.10;43.80;;;;;;5088065;28;20548;-69
2022/03/24 09:58:32;;;;;;;30.20;19.90;;;26.10;43.60;;;;;;5072367;28;20449;-69
2022/03/24 10:01:01;;;;;;;34.17;21.63;;;26.70;44.00;;;;;;5082245;28;20501;-69
2022/03/24 10:03:29;;;;;;;29.43;22.53;;;26.40;42.60;;;;;;5078233;28;20573;-69
2022/03/24 10:05:58;;;;;;;31.90;20.97;;;26.70;42.60;;;;;;5078592;28;20963;-69
2022/03/24 10:08:25;;;;;;;32.10;20.10;;;27.70;42.00;;;;;;5086325;28;20832;-68
2022/03/24 10:10:58;;;;;;;30.00;20.13;;;27.70;41.40;;;;;;5077383;28;20469;-69
2022/03/24 10:13:26;;;;;;;28.70;19.07;;;27.90;39.90;;;;;;5086141;28;20461;-68
2022/03/24 10:15:52;;;;;;;33.00;22.03;;;28.20;39.80;;;;;;5087561;22;21776;-70
2022/03/24 10:18:19;;;;;;;35.13;24.97;;;28.50;40.10;;;;;;5079165;28;20506;-68
2022/03/24 10:20:47;;;;;;;26.53;19.23;;;28.30;40.30;;;;;;5075886;28;20963;-68
2022/03/24 10:23:14;;;;;;;30.20;23.67;;;28.20;39.70;;;;;;5073191;28;20465;-69
2022/03/24 10:25:45;;;;;;;33.73;22.33;;;27.90;41.40;;;;;;5067474;28;20466;-69
2022/03/24 10:28:14;;;;;;;29.00;22.30;;;27.50;42.40;;;;;;5061357;28;20846;-69
2022/03/24 10:30:49;;;;;;;28.93;20.30;;;27.80;40.80;;;;;;5059647;28;20453;-70
2022/03/24 10:33:29;;;;;;;31.73;22.90;;;27.90;41.10;;;;;;5059225;28;20446;-69
2022/03/24 10:36:11;;;;;;;26.50;19.57;;;28.50;41.20;;;;;;5052948;28;20474;-69
2022/03/24 10:38:40;;;;;;;29.50;20.07;;;29.00;38.00;;;;;;5050341;28;20451;-69
2022/03/24 10:41:16;;;;;;;33.17;21.67;;;28.90;37.00;;;;;;5057539;28;20511;-69
2022/03/24 10:43:43;;;;;;;27.17;21.60;;;28.60;36.70;;;;;;5057931;28;20525;-69
2022/03/24 10:46:14;;;;;;;33.80;21.00;;;28.40;37.20;;;;;;5064947;28;20467;-69
2022/03/24 10:48:40;;;;;;;28.57;19.63;;;29.00;36.40;;;;;;5062673;28;20951;-68
2022/03/24 10:51:08;;;;;;;29.60;21.47;;;29.10;34.60;;;;;;5063528;28;20455;-69
2022/03/24 10:53:41;;;;;;;30.87;20.73;;;27.60;35.50;;;;;;5068020;28;20470;-68
2022/03/24 10:56:17;;;;;;;31.37;22.30;;;27.20;35.40;;;;;;5067227;28;20586;-69
2022/03/24 10:58:48;;;;;;;24.00;19.23;;;27.90;36.10;;;;;;5067501;28;20865;-69
2022/03/24 11:01:18;;;;;;;30.87;21.00;;;28.50;34.40;;;;;;5062171;28;20462;-70
2022/03/24 11:03:45;;;;;;;31.43;22.83;;;28.70;34.20;;;;;;5062429;28;21113;-69
2022/03/24 11:06:14;;;;;;;25.70;20.30;;;28.00;34.10;;;;;;5063380;28;20490;-69
2022/03/24 11:08:44;;;;;;;32.40;22.77;;;28.40;34.10;;;;;;5059830;28;20444;-69
2022/03/24 11:11:13;;;;;;;26.40;18.53;;;28.70;34.70;;;;;;5058869;28;20473;-69
2022/03/24 11:13:43;;;;;;;36.73;25.83;;;28.30;33.10;;;;;;5041659;28;20459;-68
2022/03/24 11:16:11;;;;;;;31.73;20.93;;;27.30;34.90;;;;;;5047138;28;20478;-69
2022/03/24 11:18:38;;;;;;;31.33;22.30;;;27.50;34.80;;;;;;5057725;28;20966;-69
2022/03/24 11:21:10;;;;;;;35.40;25.40;;;28.00;35.00;;;;;;5056458;28;20528;-69
2022/03/24 11:23:39;;;;;;;32.87;23.13;;;27.90;35.80;;;;;;5056609;28;20478;-68
2022/03/24 11:26:11;;;;;;;37.50;24.90;;;28.90;35.20;;;;;;5055819;28;20481;-71
2022/03/24 11:28:39;;;;;;;28.37;21.83;;;29.00;35.20;;;;;;5060838;28;20509;-71
2022/03/24 11:31:09;;;;;;;32.90;24.77;;;29.30;33.70;;;;;;5061384;28;20443;-70
2022/03/24 11:33:45;;;;;;;28.77;20.67;;;29.70;33.20;;;;;;5050455;28;20505;-70
2022/03/24 11:36:13;;;;;;;36.00;22.17;;;29.30;32.40;;;;;;5056771;28;20474;-71
2022/03/24 11:38:43;;;;;;;30.77;23.50;;;28.50;33.50;;;;;;5057322;28;20447;-70
2022/03/24 11:41:17;;;;;;;29.80;22.37;;;28.30;34.50;;;;;;5051864;28;20537;-70
2022/03/24 11:43:57;;;;;;;37.93;23.37;;;28.80;33.50;;;;;;5056874;28;20878;-70
2022/03/24 11:46:35;;;;;;;32.50;24.40;;;29.00;34.90;;;;;;5058069;28;21092;-71
2022/03/24 11:49:20;;;;;;;33.13;22.50;;;29.70;33.30;;;;;;5059579;28;20943;-70
2022/03/24 11:51:49;;;;;;;32.63;23.00;;;29.20;32.60;;;;;;5056477;28;20450;-70
2022/03/24 11:54:29;;;;;;;34.60;23.03;;;29.80;33.00;;;;;;5056301;28;20438;-70
2022/03/24 11:57:29;;;;;;;28.07;21.57;;;29.80;33.10;;;;;;5063648;28;20842;-71
2022/03/24 12:00:40;;;;;;;30.90;22.77;;;29.40;33.50;;;;;;5061183;28;20825;-70
2022/03/24 12:03:52;;;;;;;29.87;22.40;;;29.20;34.70;;;;;;5046632;28;20450;-72
2022/03/24 12:06:20;;;;;;;33.33;23.53;;;30.40;33.40;;;;;;5011029;28;20481;-71
2022/03/24 12:08:51;;;;;;;29.03;22.13;;;30.20;33.90;;;;;;5048483;28;20459;-70
2022/03/24 12:11:39;;;;;;;30.40;22.43;;;30.30;33.40;;;;;;5052248;28;20525;-70
2022/03/24 12:14:10;;;;;;;31.17;22.30;;;30.30;33.10;;;;;;5059374;28;20499;-70
2022/03/24 12:16:39;;;;;;;36.40;25.73;;;29.90;33.40;;;;;;5060094;28;20590;-70
2022/03/24 12:19:08;;;;;;;29.97;21.70;;;30.20;33.80;;;;;;5057028;28;20541;-70
2022/03/24 12:21:35;;;;;;;29.47;22.37;;;30.70;32.80;;;;;;5060794;28;20503;-69
2022/03/24 12:24:07;;;;;;;28.20;21.30;;;30.70;32.70;;;;;;5058756;28;20483;-69
2022/03/24 12:26:38;;;;;;;28.57;20.57;;;30.70;30.80;;;;;;5059002;28;20462;-68
2022/03/24 12:29:20;;;;;;;24.17;18.50;;;30.30;30.60;;;;;;5059800;28;20979;-69
2022/03/24 12:31:58;;;;;;;56.17;38.73;;;30.40;30.20;;;;;;5058530;28;20889;-69
2022/03/24 12:34:29;;;;;;;29.50;22.03;;;31.40;29.40;;;;;;5054739;28;20459;-69
2022/03/24 12:36:56;;;;;;;34.67;25.10;;;30.80;30.50;;;;;;5055284;28;21015;-68
2022/03/24 12:39:40;;;;;;;29.80;22.10;;;31.60;31.00;;;;;;5056303;28;20983;-69